.
WxDataArchive / Data Records for 2013-06-07
2013-06-06 June 2013 2013-06-08

Data Records for Friday, 07 June 2013

Time	Temp	Chill	HIndex	Humid	Dewpt	 Wind 	HiWind	WindDir	Rain 	Barom 
-----	----	-----	------	-----	-----	------	------	-------	-----	----- 
00:00	61.0	61.0	61.0	82	55.5	0	2	90	0.00	29.857 
00:05	60.9	60.9	60.9	82	55.4	0	3	90	0.00	29.857 
00:10	60.9	60.9	60.9	82	55.4	0	1	90	0.00	29.857 
00:15	60.7	60.7	60.7	82	55.2	0	2	90	0.00	29.856 
00:20	60.7	60.7	60.7	82	55.2	1	4	90	0.00	29.856 
00:25	60.7	60.7	60.7	81	54.8	1	3	90	0.00	29.856 
00:30	60.9	60.9	60.9	81	55.0	0	2	90	0.00	29.861 
00:35	61.0	61.0	61.0	81	55.1	0	4	90	0.00	29.861 
00:40	61.0	61.0	61.0	80	54.8	2	5	90	0.00	29.861 
00:45	61.0	61.0	61.0	80	54.8	2	4	90	0.00	29.868 
00:50	61.0	61.0	61.0	80	54.8	1	3	90	0.00	29.868 
00:55	61.0	61.0	61.0	80	54.8	1	3	90	0.00	29.868 
01:00	60.9	60.9	60.9	80	54.7	1	3	90	0.00	29.862 
01:05	60.9	60.9	60.9	80	54.7	1	2	90	0.00	29.862 
01:10	60.7	60.7	60.7	80	54.5	1	3	90	0.00	29.862 
01:15	60.5	60.5	60.5	81	54.6	0	1	90	0.00	29.866 
01:20	60.4	60.4	60.4	81	54.5	0	2	90	0.00	29.866 
01:25	60.2	60.2	60.2	81	54.3	1	3	90	0.00	29.866 
01:30	60.1	60.1	60.1	81	54.2	0	2	90	0.00	29.863 
01:35	59.9	59.9	59.9	82	54.4	1	3	90	0.00	29.863 
01:40	59.8	59.8	59.8	82	54.3	1	3	90	0.00	29.863 
01:45	59.5	59.5	59.5	82	54.0	0	2	90	0.00	29.858 
01:50	59.3	59.3	59.3	82	53.8	1	3	90	0.00	29.858 
01:55	59.0	59.0	59.0	83	53.8	1	3	90	0.00	29.858 
02:00	58.9	58.9	58.9	83	53.7	1	3	90	0.00	29.861 
02:05	58.7	58.7	58.7	83	53.5	0	2	90	0.00	29.861 
02:10	58.4	58.4	58.4	84	53.6	0	1	90	0.00	29.861 
02:15	58.3	58.3	58.3	84	53.5	0	1	90	0.00	29.859 
02:20	58.1	58.1	58.1	84	53.3	0	1	90	0.00	29.859 
02:25	58.0	58.0	58.0	84	53.2	0	1	90	0.00	29.859 
02:30	57.8	57.8	57.8	85	53.3	0	2	90	0.00	29.859 
02:35	57.6	57.6	57.6	85	53.1	0	0	---	0.00	29.859 
02:40	57.5	57.5	57.5	85	53.0	0	0	---	0.00	29.859 
02:45	57.3	57.3	57.3	85	52.8	0	0	---	0.00	29.859 
02:50	57.2	57.2	57.2	85	52.7	0	0	---	0.00	29.859 
02:55	56.9	56.9	56.9	86	52.8	0	0	---	0.00	29.859 
03:00	56.7	56.7	56.7	86	52.6	0	0	---	0.00	29.858 
03:05	56.7	56.7	56.7	87	52.9	0	0	---	0.00	29.858 
03:10	56.6	56.6	56.6	87	52.8	0	0	---	0.00	29.858 
03:15	56.5	56.5	56.5	87	52.7	0	0	---	0.00	29.852 
03:20	56.3	56.3	56.3	88	52.8	0	0	---	0.00	29.852 
03:25	56.2	56.2	56.2	88	52.7	0	0	---	0.00	29.852 
03:30	56.0	56.0	56.0	88	52.5	0	0	---	0.00	29.853 
03:35	55.9	55.9	55.9	88	52.4	0	0	---	0.00	29.853 
03:40	55.7	55.7	55.7	88	52.2	0	0	---	0.00	29.853 
03:45	55.7	55.7	55.7	88	52.2	0	0	---	0.00	29.850 
03:50	55.6	55.6	55.6	88	52.1	0	0	---	0.00	29.850 
03:55	55.4	55.4	55.4	88	51.9	0	0	---	0.00	29.850 
04:00	55.3	55.3	55.3	89	52.1	0	0	---	0.00	29.850 
04:05	55.1	55.1	55.1	89	51.9	0	0	---	0.00	29.850 
04:10	55.0	55.0	55.0	89	51.8	0	0	---	0.00	29.850 
04:15	54.8	54.8	54.8	89	51.6	0	0	---	0.00	29.849 
04:20	54.7	54.7	54.7	89	51.5	0	0	---	0.00	29.849 
04:25	54.7	54.7	54.7	90	51.8	0	0	---	0.00	29.849 
04:30	54.7	54.7	54.7	90	51.8	0	0	---	0.00	29.847 
04:35	54.7	54.7	54.7	90	51.8	0	0	---	0.00	29.847 
04:40	54.7	54.7	54.7	90	51.8	0	0	---	0.00	29.847 
04:45	54.7	54.7	54.7	90	51.8	0	0	---	0.00	29.846 
04:50	54.7	54.7	54.7	91	52.1	0	0	---	0.00	29.846 
04:55	54.7	54.7	54.7	91	52.1	0	0	---	0.00	29.846 
05:00	54.8	54.8	54.8	91	52.2	0	0	---	0.00	29.849 
05:05	54.8	54.8	54.8	91	52.2	0	0	---	0.00	29.849 
05:10	54.8	54.8	54.8	91	52.2	0	0	---	0.00	29.849 
05:15	55.0	55.0	55.0	91	52.4	0	0	---	0.00	29.850 
05:20	55.0	55.0	55.0	91	52.4	0	0	---	0.00	29.850 
05:25	55.1	55.1	55.1	91	52.5	0	0	---	0.00	29.850 
05:30	55.3	55.3	55.3	91	52.7	0	0	---	0.00	29.852 
05:35	55.4	55.4	55.4	91	52.8	0	0	---	0.00	29.852 
05:40	55.6	55.6	55.6	91	53.0	0	0	---	0.00	29.852 
05:45	55.6	55.6	55.6	91	53.0	0	0	---	0.00	29.852 
05:50	55.6	55.6	55.6	91	53.0	0	0	---	0.00	29.852 
05:55	55.6	55.6	55.6	91	53.0	0	1	90	0.00	29.852 
06:00	55.4	55.4	55.4	91	52.8	0	1	90	0.00	29.856 
06:05	55.4	55.4	55.4	90	52.5	0	0	---	0.00	29.856 
06:10	55.3	55.3	55.3	90	52.4	0	0	---	0.00	29.856 
06:15	55.3	55.3	55.3	90	52.4	0	0	---	0.00	29.859 
06:20	55.3	55.3	55.3	90	52.4	0	0	---	0.00	29.859 
06:25	55.3	55.3	55.3	90	52.4	0	0	---	0.00	29.859 
06:30	55.3	55.3	55.3	90	52.4	0	0	---	0.00	29.865 
06:35	55.3	55.3	55.3	90	52.4	0	0	---	0.00	29.865 
06:40	55.3	55.3	55.3	90	52.4	0	0	---	0.00	29.865 
06:45	55.3	55.3	55.3	90	52.4	0	1	90	0.00	29.859 
06:50	55.3	55.3	55.3	90	52.4	0	1	90	0.00	29.859 
06:55	55.4	55.4	55.4	90	52.5	0	0	---	0.00	29.859 
07:00	55.4	55.4	55.4	90	52.5	0	2	90	0.00	29.859 
07:05	55.4	55.4	55.4	90	52.5	0	2	90	0.00	29.859 
07:10	55.4	55.4	55.4	90	52.5	0	2	90	0.00	29.859 
07:15	55.4	55.4	55.4	90	52.5	0	2	90	0.00	29.860 
07:20	55.6	55.6	55.6	89	52.4	1	3	90	0.00	29.860 
07:25	55.6	55.6	55.6	89	52.4	1	2	90	0.00	29.860 
07:30	55.7	55.7	55.7	88	52.2	1	4	90	0.00	29.859 
07:35	55.7	55.7	55.7	88	52.2	1	4	90	0.00	29.859 
07:40	55.9	55.9	55.9	88	52.4	1	4	90	0.00	29.859 
07:45	55.9	55.9	55.9	87	52.1	0	1	90	0.00	29.864 
07:50	56.2	56.2	56.2	87	52.4	0	2	90	0.00	29.864 
07:55	56.2	56.2	56.2	86	52.1	0	3	90	0.00	29.864 
08:00	56.3	56.3	56.3	85	51.8	0	2	90	0.00	29.870 
08:05	56.6	56.6	56.6	85	52.1	0	1	90	0.00	29.870 
08:10	56.7	56.7	56.7	84	51.9	0	1	90	0.00	29.870 
08:15	56.9	56.9	56.9	83	51.8	1	3	90	0.00	29.873 
08:20	57.2	57.2	57.2	82	51.8	1	3	90	0.00	29.873 
08:25	57.3	57.3	57.3	81	51.5	0	3	90	0.00	29.873 
08:30	57.5	57.5	57.5	80	51.4	1	3	158	0.00	29.871 
08:35	57.6	57.6	57.6	80	51.5	1	4	112	0.00	29.871 
08:40	57.8	57.8	57.8	79	51.3	2	4	112	0.00	29.871 
08:45	58.3	58.3	58.3	78	51.5	1	3	112	0.00	29.872 
08:50	58.7	58.7	58.7	78	51.9	0	2	112	0.00	29.872 
08:55	59.0	59.0	59.0	76	51.4	2	4	112	0.00	29.872 
09:00	59.2	59.2	59.2	76	51.6	0	2	112	0.00	29.870 
09:05	59.2	59.2	59.2	76	51.6	1	3	112	0.00	29.870 
09:10	59.3	59.3	59.3	75	51.4	0	4	45	0.00	29.870 
09:15	59.5	59.5	59.5	76	51.9	0	2	45	0.00	29.873 
09:20	59.9	59.9	59.9	75	52.0	0	2	45	0.00	29.873 
09:25	60.2	60.2	60.2	74	51.9	1	4	45	0.00	29.873 
09:30	60.7	60.7	60.7	74	52.4	1	4	90	0.00	29.873 
09:35	60.9	60.9	60.9	74	52.6	0	1	90	0.00	29.873 
09:40	61.0	61.0	61.0	73	52.3	1	4	90	0.00	29.873 
09:45	61.3	61.3	61.3	71	51.8	2	4	90	0.00	29.876 
09:50	61.8	61.8	61.8	71	52.3	1	3	90	0.00	29.876 
09:55	62.0	62.0	62.0	70	52.1	2	5	90	0.00	29.876 
10:00	62.3	62.3	62.3	71	52.8	1	5	90	0.00	29.872 
10:05	62.7	62.7	62.7	69	52.4	0	3	90	0.00	29.872 
10:10	63.2	63.2	63.2	69	52.9	1	5	90	0.00	29.872 
10:15	63.5	63.5	63.5	68	52.7	0	2	90	0.00	29.872 
10:20	63.4	63.4	63.4	65	51.4	0	2	90	0.00	29.872 
10:25	63.1	63.1	63.1	65	51.1	1	3	90	0.00	29.872 
10:30	63.1	63.1	63.1	67	52.0	0	2	68	0.00	29.868 
10:35	63.5	63.5	63.5	66	51.9	1	5	90	0.00	29.868 
10:40	64.0	64.0	64.0	64	51.6	2	5	90	0.00	29.868 
10:45	64.3	64.3	64.3	65	52.3	1	5	135	0.00	29.860 
10:50	64.8	64.8	64.8	64	52.3	1	3	0	0.00	29.860 
10:55	65.3	65.3	65.3	67	54.1	1	4	90	0.00	29.860 
11:00	65.8	65.8	65.8	65	53.7	1	4	112	0.00	29.856 
11:05	65.6	65.6	65.6	62	52.2	1	3	112	0.00	29.856 
11:10	65.0	65.0	65.0	63	52.1	1	4	292	0.00	29.856 
11:15	65.3	65.3	65.3	65	53.2	2	6	135	0.00	29.858 
11:20	65.5	65.5	65.5	63	52.6	1	3	90	0.00	29.858 
11:25	65.6	65.6	65.6	64	53.1	1	6	112	0.00	29.858 
11:30	65.6	65.6	65.6	63	52.7	2	7	112	0.00	29.859 
11:35	66.0	66.0	66.0	64	53.5	1	4	45	0.00	29.859 
11:40	66.0	66.0	66.0	62	52.6	2	6	90	0.00	29.859 
11:45	66.3	66.3	66.3	63	53.3	1	5	112	0.00	29.858 
11:50	66.6	66.6	66.6	63	53.6	1	4	112	0.00	29.858 
11:55	66.9	66.9	66.9	63	53.9	1	3	270	0.00	29.858 
12:00	66.4	66.4	66.4	61	52.5	2	5	270	0.00	29.861 
12:05	66.1	66.1	66.1	63	53.1	1	3	292	0.00	29.861 
12:10	66.4	66.4	66.4	62	53.0	1	4	292	0.00	29.861 
12:15	67.3	67.3	67.3	60	52.9	1	5	112	0.00	29.862 
12:20	67.8	67.8	67.8	62	54.3	1	4	112	0.00	29.862 
12:25	68.1	68.1	68.1	59	53.2	1	5	90	0.00	29.862 
12:30	68.3	68.3	68.3	60	53.9	2	6	90	0.00	29.857 
12:35	68.3	68.3	68.3	60	53.9	1	3	22	0.00	29.857 
12:40	68.3	68.3	68.3	60	53.9	1	6	112	0.00	29.857 
12:45	68.1	68.1	68.1	60	53.7	1	3	112	0.00	29.856 
12:50	67.8	67.8	67.8	60	53.4	1	4	112	0.00	29.856 
12:55	67.4	67.4	67.4	62	53.9	1	3	112	0.00	29.856 
13:00	67.6	67.6	67.6	61	53.7	1	5	112	0.00	29.855 
13:05	68.6	68.6	68.6	60	54.1	1	4	112	0.00	29.855 
13:10	69.1	69.1	69.1	59	54.2	1	5	112	0.00	29.855 
13:15	68.9	68.9	68.9	58	53.5	2	6	90	0.00	29.854 
13:20	69.1	69.1	69.1	61	55.1	1	4	338	0.00	29.854 
13:25	69.4	69.4	69.4	56	53.0	1	5	112	0.00	29.854 
13:30	69.9	69.9	69.9	61	55.8	1	3	112	0.00	29.854 
13:35	70.1	70.1	70.1	58	54.6	2	5	112	0.00	29.854 
13:40	70.3	70.3	70.3	55	53.4	1	4	112	0.00	29.854 
13:45	70.3	70.3	70.3	55	53.4	2	6	90	0.00	29.853 
13:50	70.3	70.3	70.3	54	52.9	2	4	90	0.00	29.853 
13:55	70.6	70.6	70.6	58	55.1	2	5	112	0.00	29.853 
14:00	71.1	71.1	71.1	57	55.1	1	5	112	0.00	29.841 
14:05	71.3	71.3	71.3	57	55.3	1	3	112	0.00	29.841 
14:10	71.3	71.3	71.3	54	53.8	1	5	90	0.00	29.841 
14:15	70.8	70.8	70.8	54	53.3	2	5	90	0.00	29.842 
14:20	70.4	70.4	70.4	57	54.4	1	3	112	0.00	29.842 
14:25	70.6	70.6	70.6	55	53.6	2	5	112	0.00	29.842 
14:30	70.4	70.4	70.4	56	53.9	1	3	135	0.00	29.841 
14:35	70.6	70.6	70.6	57	54.6	1	3	135	0.00	29.841 
14:40	70.6	70.6	70.6	55	53.6	1	5	135	0.00	29.841 
14:45	70.4	70.4	70.4	55	53.4	1	5	112	0.00	29.842 
14:50	70.4	70.4	70.4	55	53.4	1	3	112	0.00	29.842 
14:55	70.4	70.4	70.4	54	52.9	1	4	135	0.00	29.842 
15:00	70.1	70.1	70.1	55	53.2	1	5	225	0.00	29.842 
15:05	69.6	69.6	69.6	53	51.7	1	4	112	0.00	29.842 
15:10	69.6	69.6	69.6	57	53.7	1	5	112	0.00	29.842 
15:15	69.9	69.9	69.9	54	52.5	1	4	112	0.00	29.844 
15:20	69.9	69.9	69.9	56	53.5	2	5	112	0.00	29.844 
15:25	70.3	70.3	70.3	56	53.8	2	6	112	0.00	29.844 
15:30	70.8	70.8	70.8	58	55.3	1	4	112	0.00	29.841 
15:35	71.1	71.1	71.1	54	53.6	2	6	112	0.00	29.841 
15:40	70.6	70.6	70.6	54	53.1	2	6	112	0.00	29.841 
15:45	70.1	70.1	70.1	57	54.1	2	5	112	0.00	29.842 
15:50	69.9	69.9	69.9	57	54.0	1	4	112	0.00	29.842 
15:55	70.1	70.1	70.1	58	54.6	1	4	315	0.00	29.842 
16:00	70.9	70.9	70.9	57	54.9	1	5	112	0.00	29.840 
16:05	71.6	71.6	71.6	53	53.5	2	6	112	0.00	29.840 
16:10	71.3	71.3	71.3	54	53.8	1	5	0	0.00	29.840 
16:15	70.9	70.9	70.9	56	54.4	1	3	90	0.00	29.840 
16:20	70.8	70.8	70.8	54	53.3	0	3	135	0.00	29.840 
16:25	70.8	70.8	70.8	53	52.8	2	6	90	0.00	29.840 
16:30	70.4	70.4	70.4	54	52.9	1	4	90	0.00	29.840 
16:35	70.3	70.3	70.3	54	52.9	1	3	90	0.00	29.840 
16:40	70.1	70.1	70.1	54	52.7	1	4	0	0.00	29.840 
16:45	70.1	70.1	70.1	55	53.2	1	3	135	0.00	29.839 
16:50	69.9	69.9	69.9	56	53.5	1	6	112	0.00	29.839 
16:55	70.1	70.1	70.1	57	54.1	2	5	112	0.00	29.839 
17:00	70.6	70.6	70.6	55	53.6	3	7	90	0.00	29.839 
17:05	70.4	70.4	70.4	57	54.4	2	6	112	0.00	29.839 
17:10	70.1	70.1	70.1	56	53.7	1	4	90	0.00	29.839 
17:15	70.3	70.3	70.3	55	53.4	0	3	90	0.00	29.839 
17:20	70.1	70.1	70.1	56	53.7	2	5	112	0.00	29.839 
17:25	70.1	70.1	70.1	56	53.7	1	3	68	0.00	29.839 
17:30	70.8	70.8	70.8	56	54.3	2	5	68	0.00	29.838 
17:35	71.1	71.1	71.1	56	54.6	1	3	90	0.00	29.838 
17:40	71.3	71.3	71.3	56	54.8	2	7	112	0.00	29.838 
17:45	71.1	71.1	71.1	53	53.1	1	6	90	0.00	29.840 
17:50	70.8	70.8	70.8	54	53.3	1	4	68	0.00	29.840 
17:55	70.6	70.6	70.6	55	53.6	1	3	112	0.00	29.840 
18:00	70.4	70.4	70.4	55	53.4	1	5	112	0.00	29.843 
18:05	70.1	70.1	70.1	56	53.7	1	4	90	0.00	29.843 
18:10	69.8	69.8	69.8	55	52.9	2	9	90	0.00	29.843 
18:15	69.8	69.8	69.8	53	51.9	2	4	90	0.00	29.843 
18:20	69.6	69.6	69.6	54	52.2	2	6	90	0.00	29.843 
18:25	69.8	69.8	69.8	55	52.9	0	2	90	0.00	29.843 
18:30	69.4	69.4	69.4	53	51.5	1	5	338	0.00	29.843 
18:35	69.3	69.3	69.3	53	51.4	1	3	112	0.00	29.843 
18:40	69.1	69.1	69.1	54	51.7	1	5	112	0.00	29.843 
18:45	69.1	69.1	69.1	56	52.7	1	3	112	0.00	29.843 
18:50	69.1	69.1	69.1	55	52.2	1	3	112	0.00	29.843 
18:55	68.8	68.8	68.8	56	52.5	0	2	112	0.00	29.843 
19:00	68.4	68.4	68.4	56	52.1	0	2	112	0.00	29.848 
19:05	68.3	68.3	68.3	57	52.5	0	1	112	0.00	29.848 
19:10	68.3	68.3	68.3	56	52.0	1	4	112	0.00	29.848 
19:15	68.6	68.6	68.6	58	53.2	1	3	112	0.00	29.846 
19:20	68.3	68.3	68.3	57	52.5	4	8	90	0.00	29.846 
19:25	67.6	67.6	67.6	58	52.3	4	7	90	0.00	29.846 
19:30	66.9	66.9	66.9	60	52.6	3	10	90	0.00	29.856 
19:35	66.3	66.3	66.3	60	52.0	3	8	90	0.00	29.856 
19:40	66.0	66.0	66.0	62	52.6	1	5	112	0.00	29.856 
19:45	65.6	65.6	65.6	62	52.2	2	4	112	0.00	29.860 
19:50	65.5	65.5	65.5	63	52.6	2	5	68	0.00	29.860 
19:55	65.2	65.2	65.2	63	52.3	1	4	112	0.00	29.860 
20:00	65.0	65.0	65.0	63	52.1	1	6	90	0.00	29.866 
20:05	64.8	64.8	64.8	63	51.9	2	5	68	0.00	29.866 
20:10	64.8	64.8	64.8	63	51.9	1	4	112	0.00	29.866 
20:15	64.8	64.8	64.8	63	51.9	1	4	112	0.00	29.873 
20:20	64.5	64.5	64.5	63	51.6	1	6	112	0.00	29.873 
20:25	64.2	64.2	64.2	64	51.8	1	7	68	0.00	29.873 
20:30	64.0	64.0	64.0	65	52.0	1	4	68	0.00	29.878 
20:35	63.9	63.9	63.9	65	51.9	1	3	68	0.00	29.878 
20:40	63.7	63.7	63.7	65	51.7	1	6	90	0.00	29.878 
20:45	63.4	63.4	63.4	65	51.4	1	3	90	0.00	29.880 
20:50	63.2	63.2	63.2	66	51.6	1	3	90	0.00	29.880 
20:55	63.1	63.1	63.1	66	51.6	0	1	90	0.00	29.880 
21:00	62.7	62.7	62.7	66	51.2	1	4	90	0.00	29.882 
21:05	62.6	62.6	62.6	66	51.1	1	4	90	0.00	29.882 
21:10	62.3	62.3	62.3	67	51.2	1	5	112	0.00	29.882 
21:15	62.1	62.1	62.1	68	51.4	1	3	112	0.00	29.881 
21:20	61.8	61.8	61.8	68	51.1	1	5	112	0.00	29.881 
21:25	61.6	61.6	61.6	69	51.3	0	3	112	0.00	29.881 
21:30	61.5	61.5	61.5	69	51.2	0	0	---	0.00	29.878 
21:35	61.2	61.2	61.2	69	50.9	0	1	112	0.00	29.878 
21:40	60.7	60.7	60.7	70	50.9	0	0	---	0.00	29.878 
21:45	60.4	60.4	60.4	71	50.9	0	0	---	0.00	29.886 
21:50	60.1	60.1	60.1	72	51.0	0	0	---	0.00	29.886 
21:55	59.9	59.9	59.9	72	50.8	0	1	112	0.00	29.886 
22:00	59.6	59.6	59.6	73	50.9	0	0	---	0.00	29.888 
22:05	59.5	59.5	59.5	73	50.8	0	0	---	0.00	29.888 
22:10	59.2	59.2	59.2	73	50.5	0	1	112	0.00	29.888 
22:15	59.2	59.2	59.2	74	50.9	0	0	---	0.00	29.883 
22:20	58.9	58.9	58.9	74	50.6	0	0	---	0.00	29.883 
22:25	58.6	58.6	58.6	74	50.3	0	0	---	0.00	29.883 
22:30	58.4	58.4	58.4	75	50.5	0	0	---	0.00	29.889 
22:35	58.1	58.1	58.1	76	50.6	0	0	---	0.00	29.889 
22:40	57.8	57.8	57.8	76	50.3	0	0	---	0.00	29.889 
22:45	57.6	57.6	57.6	77	50.4	0	0	---	0.00	29.889 
22:50	57.3	57.3	57.3	77	50.1	0	0	---	0.00	29.889 
22:55	57.2	57.2	57.2	78	50.4	0	0	---	0.00	29.889 
23:00	56.9	56.9	56.9	79	50.5	0	0	---	0.00	29.892 
23:05	56.7	56.7	56.7	79	50.3	0	0	---	0.00	29.892 
23:10	56.6	56.6	56.6	79	50.2	0	0	---	0.00	29.892 
23:15	56.5	56.5	56.5	80	50.4	0	0	---	0.00	29.892 
23:20	56.2	56.2	56.2	80	50.1	0	0	---	0.00	29.892 
23:25	56.0	56.0	56.0	81	50.3	0	0	---	0.00	29.892 
23:30	55.9	55.9	55.9	81	50.2	0	0	---	0.00	29.893 
23:35	55.6	55.6	55.6	81	49.9	0	0	---	0.00	29.893 
23:40	55.4	55.4	55.4	82	50.0	0	0	---	0.00	29.893 
23:45	55.3	55.3	55.3	82	49.9	0	0	---	0.00	29.896 
23:50	55.1	55.1	55.1	83	50.0	0	0	---	0.00	29.896 
23:55	54.8	54.8	54.8	83	49.7	0	0	---	0.00	29.896 

CoCoRaHS
IN-AL-39
A2 Web Hosting
Creative Commons License
GoDaddy
search engine by freefind advanced

loaded 2018-11-20 09:07:54 • last modified 2010-11-18 10:43:29
Privacy PolicyDisclaimer
• wx.awcolley.com is powered by PmWiki v.2002016 •
• all content (unless otherwise noted) © 2018 A W Colley